createdAt,value
2023-03-21T00:00:44.237Z,23.90
2023-03-21T00:03:12.148Z,23.37
2023-03-21T00:05:42.062Z,22.80
2023-03-21T00:08:11.246Z,22.17
2023-03-21T00:10:43.884Z,23.13
2023-03-21T00:13:13.285Z,23.60
2023-03-21T00:16:03.459Z,23.83
2023-03-21T00:18:36.725Z,22.87
2023-03-21T00:21:37.652Z,24.70
2023-03-21T00:23:55.738Z,25.37
2023-03-21T00:26:23.540Z,25.57
2023-03-21T00:28:51.866Z,25.57
2023-03-21T00:31:21.519Z,25.13
2023-03-21T00:33:50.746Z,27.30
2023-03-21T00:36:21.648Z,26.43
2023-03-21T00:38:51.890Z,28.63
2023-03-21T00:41:35.223Z,27.67
2023-03-21T00:44:08.544Z,27.80
2023-03-21T00:46:45.618Z,28.10
2023-03-21T00:49:17.104Z,30.20
2023-03-21T00:51:44.810Z,28.80
2023-03-21T00:54:13.580Z,30.53
2023-03-21T00:56:43.340Z,29.53
2023-03-21T00:59:11.099Z,31.10
2023-03-21T01:01:38.835Z,31.53
2023-03-21T01:04:13.487Z,31.70
2023-03-21T01:06:42.394Z,32.30
2023-03-21T01:09:13.916Z,33.20
2023-03-21T01:11:43.036Z,31.40
2023-03-21T01:14:22.965Z,30.87
2023-03-21T01:16:51.305Z,33.63
2023-03-21T01:19:40.611Z,32.60
2023-03-21T01:22:08.671Z,33.50
2023-03-21T01:24:40.555Z,33.00
2023-03-21T01:27:12.554Z,32.50
2023-03-21T01:29:40.172Z,33.13
2023-03-21T01:32:07.726Z,34.33
2023-03-21T01:34:36.202Z,34.20
2023-03-21T01:37:03.955Z,34.43
2023-03-21T01:39:36.765Z,33.80
2023-03-21T01:42:04.389Z,37.50
2023-03-21T01:44:33.429Z,35.23
2023-03-21T01:47:10.946Z,35.60
2023-03-21T01:50:03.433Z,35.97
2023-03-21T01:52:41.801Z,36.60
2023-03-21T01:55:16.116Z,36.67
2023-03-21T01:58:06.741Z,38.80
2023-03-21T02:01:00.098Z,38.93
2023-03-21T02:03:49.910Z,38.27
2023-03-21T02:06:33.848Z,35.10
2023-03-21T02:09:15.069Z,38.60
2023-03-21T02:11:46.513Z,38.30
2023-03-21T02:14:26.775Z,41.43
2023-03-21T02:17:22.718Z,39.40
2023-03-21T02:20:25.369Z,39.00
2023-03-21T02:23:11.364Z,39.57
2023-03-21T02:25:58.766Z,37.20
2023-03-21T02:28:27.373Z,35.43
2023-03-21T02:31:07.936Z,36.07
2023-03-21T02:34:03.717Z,36.10
2023-03-21T02:36:51.150Z,35.10
2023-03-21T02:39:24.439Z,35.20
2023-03-21T02:41:57.410Z,37.10
2023-03-21T02:44:37.514Z,32.43
2023-03-21T02:47:09.042Z,36.33
2023-03-21T02:49:43.050Z,35.70
2023-03-21T02:52:28.293Z,35.60
2023-03-21T02:55:05.289Z,33.97
2023-03-21T02:57:44.065Z,36.30
2023-03-21T03:00:18.893Z,36.47
2023-03-21T03:02:54.604Z,37.53
2023-03-21T03:05:26.491Z,38.30
2023-03-21T03:08:07.860Z,34.97
2023-03-21T03:10:53.245Z,36.33
2023-03-21T03:13:34.047Z,37.30
2023-03-21T03:16:06.170Z,38.73
2023-03-21T03:18:41.111Z,38.87
2023-03-21T03:21:13.213Z,39.63
2023-03-21T03:23:46.551Z,40.00
2023-03-21T03:26:17.677Z,39.10
2023-03-21T03:28:48.131Z,40.50
2023-03-21T03:31:25.890Z,39.77
2023-03-21T03:34:01.346Z,38.47
2023-03-21T03:36:35.867Z,43.00
2023-03-21T03:39:11.221Z,43.27
2023-03-21T03:44:38.170Z,40.30
2023-03-21T03:47:11.832Z,40.60
2023-03-21T03:49:45.010Z,41.67
2023-03-21T03:52:17.175Z,39.80
2023-03-21T03:54:52.044Z,41.67
2023-03-21T03:57:22.084Z,40.40
2023-03-21T03:59:49.888Z,41.03
2023-03-21T04:02:27.248Z,41.43
2023-03-21T04:04:57.875Z,40.07
2023-03-21T04:07:25.888Z,39.70
2023-03-21T04:09:57.574Z,40.97
2023-03-21T04:12:25.368Z,41.47
2023-03-21T04:15:10.677Z,42.33
2023-03-21T04:17:42.726Z,41.50
2023-03-21T04:20:18.508Z,40.00
2023-03-21T04:22:52.206Z,38.23
2023-03-21T04:25:32.310Z,41.73
2023-03-21T04:28:00.605Z,38.87
2023-03-21T04:30:39.805Z,38.23
2023-03-21T04:33:14.250Z,40.20
2023-03-21T04:35:49.852Z,36.97
2023-03-21T04:38:18.759Z,38.17
2023-03-21T04:40:47.866Z,37.20
2023-03-21T04:43:15.526Z,39.27
2023-03-21T04:45:43.450Z,41.67
2023-03-21T04:48:11.434Z,38.27
2023-03-21T04:50:39.378Z,38.73
2023-03-21T04:53:07.299Z,36.90
2023-03-21T04:55:37.029Z,39.90
2023-03-21T04:58:06.879Z,38.33
2023-03-21T05:00:37.443Z,41.30
2023-03-21T05:03:09.343Z,37.60
2023-03-21T05:05:38.331Z,39.90
2023-03-21T05:08:07.067Z,38.50
2023-03-21T05:10:34.862Z,38.97
2023-03-21T05:13:02.602Z,39.03
2023-03-21T05:15:31.913Z,38.90
2023-03-21T05:17:59.692Z,38.33
2023-03-21T05:20:27.816Z,40.00
2023-03-21T05:22:55.675Z,40.37
2023-03-21T05:25:33.956Z,39.13
2023-03-21T05:28:22.134Z,42.10
2023-03-21T05:30:51.838Z,39.93
2023-03-21T05:33:20.270Z,41.13
2023-03-21T05:35:51.576Z,42.80
2023-03-21T05:38:19.461Z,40.97
2023-03-21T05:40:53.038Z,40.37
2023-03-21T05:43:21.109Z,45.13
2023-03-21T05:45:50.845Z,44.50
2023-03-21T05:48:20.061Z,45.20
2023-03-21T05:51:13.822Z,43.73
2023-03-21T05:53:42.049Z,45.43
2023-03-21T05:56:10.965Z,44.30
2023-03-21T05:58:48.333Z,45.70
2023-03-21T06:01:17.640Z,44.80
2023-03-21T06:03:53.692Z,47.07
2023-03-21T06:06:23.997Z,46.57
2023-03-21T06:08:57.014Z,49.13
2023-03-21T06:11:27.831Z,48.30
2023-03-21T06:14:14.034Z,46.00
2023-03-21T06:16:45.037Z,46.63
2023-03-21T06:19:14.305Z,48.33
2023-03-21T06:22:01.985Z,48.70
2023-03-21T06:24:31.310Z,48.33
2023-03-21T06:26:59.424Z,48.50
2023-03-21T06:29:33.792Z,44.90
2023-03-21T06:32:02.978Z,46.00
2023-03-21T06:34:30.914Z,46.03
2023-03-21T06:36:59.086Z,46.60
2023-03-21T06:39:33.076Z,45.17
2023-03-21T06:42:01.125Z,47.43
2023-03-21T06:44:29.443Z,46.23
2023-03-21T06:47:06.121Z,45.20
2023-03-21T06:49:34.364Z,46.50
2023-03-21T06:52:08.359Z,44.63
2023-03-21T06:54:36.239Z,45.90
2023-03-21T06:57:13.608Z,45.70
2023-03-21T06:59:42.545Z,44.07
2023-03-21T07:02:16.688Z,46.97
2023-03-21T07:04:56.955Z,47.90
2023-03-21T07:07:30.476Z,51.20
2023-03-21T07:09:58.581Z,50.43
2023-03-21T07:12:30.285Z,47.60
2023-03-21T07:15:09.377Z,51.50
2023-03-21T07:17:39.615Z,51.40
2023-03-21T07:20:08.506Z,53.77
2023-03-21T07:22:36.617Z,53.17
2023-03-21T07:25:05.783Z,52.80
2023-03-21T07:27:41.067Z,54.30
2023-03-21T07:30:11.130Z,53.70
2023-03-21T07:32:40.603Z,53.00
2023-03-21T07:35:09.825Z,54.83
2023-03-21T07:37:38.195Z,56.13
2023-03-21T07:40:10.561Z,55.30
2023-03-21T07:42:39.836Z,57.23
2023-03-21T07:45:09.804Z,58.10
2023-03-21T07:47:37.798Z,56.97
2023-03-21T07:50:07.632Z,59.13
2023-03-21T07:52:35.952Z,57.40
2023-03-21T07:55:03.909Z,56.40
2023-03-21T07:57:31.599Z,56.00
2023-03-21T07:59:59.736Z,57.37
2023-03-21T08:02:28.119Z,56.00
2023-03-21T08:04:56.284Z,52.60
2023-03-21T08:07:26.943Z,52.57
2023-03-21T08:09:54.605Z,51.23
2023-03-21T08:12:22.578Z,49.70
2023-03-21T08:14:50.674Z,48.90
2023-03-21T08:17:18.400Z,48.73
2023-03-21T08:19:46.170Z,48.20
2023-03-21T08:22:14.055Z,47.10
2023-03-21T08:24:43.683Z,44.20
2023-03-21T08:27:11.362Z,47.57
2023-03-21T08:29:42.280Z,43.30
2023-03-21T08:32:10.239Z,45.30
2023-03-21T08:34:38.064Z,47.00
2023-03-21T08:37:05.757Z,43.83
2023-03-21T08:39:33.480Z,44.87
2023-03-21T08:42:02.602Z,44.53
2023-03-21T08:44:30.606Z,47.37
2023-03-21T08:46:58.410Z,47.20
2023-03-21T08:49:26.111Z,44.97
2023-03-21T08:51:56.837Z,44.97
2023-03-21T08:54:24.751Z,44.43
2023-03-21T08:56:52.804Z,47.17
2023-03-21T08:59:22.105Z,47.37
2023-03-21T09:01:50.058Z,43.43
2023-03-21T09:04:18.960Z,42.43
2023-03-21T09:06:48.064Z,40.70
2023-03-21T09:09:16.103Z,44.33
2023-03-21T09:11:44.064Z,40.97
2023-03-21T09:14:12.476Z,41.37
2023-03-21T09:16:43.263Z,40.50
2023-03-21T09:19:11.571Z,39.53
2023-03-21T09:21:39.564Z,39.33
2023-03-21T09:24:08.279Z,39.57
2023-03-21T09:26:36.072Z,38.97
2023-03-21T09:29:04.926Z,38.70
2023-03-21T09:31:32.724Z,41.50
2023-03-21T09:34:02.162Z,41.33
2023-03-21T09:36:31.993Z,41.60
2023-03-21T09:39:00.640Z,42.40
2023-03-21T09:41:38.025Z,41.87
2023-03-21T09:44:14.467Z,40.70
2023-03-21T09:46:45.318Z,39.40
2023-03-21T09:49:18.529Z,40.10
2023-03-21T09:51:51.089Z,38.87
2023-03-21T09:54:21.509Z,43.20
2023-03-21T09:56:50.705Z,43.13
2023-03-21T09:59:25.080Z,41.87
2023-03-21T10:01:54.926Z,42.23
2023-03-21T10:04:25.146Z,37.97
2023-03-21T10:06:57.814Z,41.87
2023-03-21T10:09:27.214Z,40.60
2023-03-21T10:11:57.946Z,39.40
2023-03-21T10:14:29.809Z,38.13
2023-03-21T10:16:59.789Z,38.97
2023-03-21T10:19:29.796Z,40.77
2023-03-21T10:22:03.054Z,39.23
2023-03-21T10:24:33.435Z,40.07
2023-03-21T10:27:02.419Z,37.00
2023-03-21T10:29:33.189Z,36.23
2023-03-21T10:32:01.793Z,34.17
2023-03-21T10:34:34.259Z,36.33
2023-03-21T10:37:03.553Z,34.07
2023-03-21T10:39:34.949Z,33.10
2023-03-21T10:42:02.714Z,32.93
2023-03-21T10:44:31.547Z,31.03
2023-03-21T10:47:01.006Z,33.27
2023-03-21T10:49:40.226Z,32.60
2023-03-21T10:52:10.277Z,29.90
2023-03-21T10:54:38.283Z,29.57
2023-03-21T10:57:08.734Z,28.80
2023-03-21T10:59:39.800Z,30.57
2023-03-21T11:02:08.447Z,30.17
2023-03-21T11:04:38.172Z,30.30
2023-03-21T11:07:08.201Z,30.83
2023-03-21T11:09:47.225Z,30.53
2023-03-21T11:12:16.940Z,29.57
2023-03-21T11:14:46.355Z,30.07
2023-03-21T11:17:29.878Z,31.10
2023-03-21T11:20:03.638Z,29.97
2023-03-21T11:22:40.327Z,28.43
2023-03-21T11:25:12.077Z,30.10
2023-03-21T11:27:49.165Z,30.27
2023-03-21T11:30:22.768Z,29.60
2023-03-21T11:32:54.553Z,31.73
2023-03-21T11:35:26.247Z,29.53
2023-03-21T11:37:55.590Z,30.70
2023-03-21T11:40:25.911Z,28.73
2023-03-21T11:42:54.814Z,31.23
2023-03-21T11:45:24.315Z,31.10
2023-03-21T11:47:54.577Z,31.63
2023-03-21T11:50:29.280Z,29.97
2023-03-21T11:53:18.323Z,29.97
2023-03-21T11:55:53.503Z,28.90
2023-03-21T11:58:32.282Z,30.90
2023-03-21T12:01:09.124Z,29.90
2023-03-21T12:04:04.542Z,28.13
2023-03-21T12:06:37.310Z,28.30
2023-03-21T12:09:17.001Z,29.87
2023-03-21T12:11:53.789Z,29.10
2023-03-21T12:14:29.704Z,28.50
2023-03-21T12:17:06.569Z,27.40
2023-03-21T12:20:08.914Z,31.13
2023-03-21T12:22:45.739Z,23.43
2023-03-21T12:25:16.903Z,25.60
2023-03-21T12:27:54.002Z,24.40
2023-03-21T12:30:35.854Z,24.87
2023-03-21T12:33:17.945Z,24.47
2023-03-21T12:36:00.682Z,21.90
2023-03-21T12:38:37.257Z,20.00
2023-03-21T12:41:12.734Z,20.33
2023-03-21T12:43:45.987Z,20.73
2023-03-21T12:46:18.352Z,18.87
2023-03-21T12:48:48.721Z,17.73
2023-03-21T12:51:20.660Z,17.80
2023-03-21T12:53:59.103Z,18.67
2023-03-21T12:56:31.372Z,18.27
2023-03-21T12:59:03.816Z,16.63
2023-03-21T13:01:33.856Z,18.70
2023-03-21T13:04:11.792Z,16.47
2023-03-21T13:06:40.529Z,16.60
2023-03-21T13:09:13.903Z,17.03
2023-03-21T13:11:41.713Z,14.77
2023-03-21T13:14:14.684Z,14.47
2023-03-21T13:16:44.182Z,13.60
2023-03-21T13:19:19.493Z,13.73
2023-03-21T13:21:52.812Z,15.10
2023-03-21T13:24:34.852Z,15.93
2023-03-21T13:27:08.109Z,14.27
2023-03-21T13:29:44.488Z,13.90
2023-03-21T13:32:17.990Z,14.13
2023-03-21T13:34:46.452Z,13.20
2023-03-21T13:37:17.631Z,13.13
2023-03-21T13:39:47.952Z,14.77
2023-03-21T13:42:23.849Z,13.07
2023-03-21T13:44:54.922Z,12.47
2023-03-21T13:47:29.789Z,14.00
2023-03-21T13:50:25.940Z,15.03
2023-03-21T13:53:31.620Z,13.80
2023-03-21T13:56:08.556Z,15.60
2023-03-21T13:58:38.899Z,13.30
2023-03-21T14:01:16.177Z,15.23
2023-03-21T14:03:46.161Z,14.50
2023-03-21T14:06:14.811Z,13.87
2023-03-21T14:08:44.714Z,16.20
2023-03-21T14:11:18.217Z,15.17
2023-03-21T14:13:51.389Z,16.00
2023-03-21T14:16:20.895Z,15.57
2023-03-21T14:18:54.981Z,14.97
2023-03-21T14:21:25.877Z,15.03
2023-03-21T14:23:58.551Z,14.20
2023-03-21T14:26:29.010Z,16.67
2023-03-21T14:28:56.898Z,15.90
2023-03-21T14:31:25.674Z,16.07
2023-03-21T14:33:56.657Z,16.40
2023-03-21T14:36:27.102Z,16.13
2023-03-21T14:38:58.074Z,15.83
2023-03-21T14:41:29.489Z,16.90
2023-03-21T14:44:17.366Z,15.80
2023-03-21T14:46:45.483Z,15.90
2023-03-21T14:49:15.435Z,16.90
2023-03-21T14:51:43.440Z,16.93
2023-03-21T14:54:17.576Z,16.10
2023-03-21T14:56:48.581Z,18.30
2023-03-21T14:59:17.696Z,16.70
2023-03-21T15:01:47.330Z,17.40
2023-03-21T15:04:16.447Z,16.60
2023-03-21T15:06:52.727Z,18.00
2023-03-21T15:09:21.144Z,18.13
2023-03-21T15:11:52.696Z,18.07
2023-03-21T15:14:24.091Z,17.13
2023-03-21T15:16:52.193Z,16.87
2023-03-21T15:19:25.189Z,15.67
2023-03-21T15:21:54.587Z,17.47
2023-03-21T15:24:26.988Z,14.43
2023-03-21T15:26:59.334Z,15.57
2023-03-21T15:29:28.157Z,15.20
2023-03-21T15:31:56.062Z,16.07
2023-03-21T15:34:26.255Z,16.70
2023-03-21T15:36:57.515Z,15.87
2023-03-21T15:39:26.659Z,15.90
2023-03-21T15:42:00.862Z,14.43
2023-03-21T15:44:29.308Z,14.63
2023-03-21T15:46:58.291Z,14.40
2023-03-21T15:49:29.303Z,13.50
2023-03-21T15:52:00.962Z,13.70
2023-03-21T15:54:30.826Z,13.27
2023-03-21T15:57:04.507Z,13.73
2023-03-21T15:59:35.431Z,13.63
2023-03-21T16:02:04.359Z,11.90
2023-03-21T16:04:32.561Z,12.90
2023-03-21T16:07:03.071Z,12.83
2023-03-21T16:09:40.846Z,11.87
2023-03-21T16:12:13.221Z,13.00
2023-03-21T16:14:42.607Z,13.47
2023-03-21T16:17:26.891Z,13.27
2023-03-21T16:19:55.284Z,11.30
2023-03-21T16:22:23.156Z,12.23
2023-03-21T16:24:51.094Z,10.50
2023-03-21T16:27:20.920Z,10.33
2023-03-21T16:29:48.636Z,9.37
2023-03-21T16:32:17.991Z,9.80
2023-03-21T16:34:46.289Z,10.67
2023-03-21T16:37:15.769Z,9.03
2023-03-21T16:39:43.907Z,9.23
2023-03-21T16:42:13.062Z,9.57
2023-03-21T16:44:42.345Z,10.93
2023-03-21T16:47:15.477Z,11.03
2023-03-21T16:49:43.531Z,10.30
2023-03-21T16:52:12.317Z,9.90
2023-03-21T16:54:40.369Z,10.63
2023-03-21T16:57:09.624Z,10.40
2023-03-21T16:59:38.477Z,10.77
2023-03-21T17:02:13.619Z,10.60
2023-03-21T17:04:41.351Z,10.53
2023-03-21T17:07:14.120Z,10.87
2023-03-21T17:09:45.102Z,12.40
2023-03-21T17:12:15.161Z,13.70
2023-03-21T17:14:43.556Z,12.60
2023-03-21T17:17:13.502Z,12.33
2023-03-21T17:19:41.882Z,11.47
2023-03-21T17:22:14.577Z,12.90
2023-03-21T17:24:54.073Z,12.50
2023-03-21T17:27:24.562Z,13.50
2023-03-21T17:29:54.711Z,11.97
2023-03-21T17:32:24.600Z,13.60
2023-03-21T17:34:53.166Z,12.27
2023-03-21T17:37:21.852Z,13.63
2023-03-21T17:39:49.648Z,14.87
2023-03-21T17:42:20.486Z,13.23
2023-03-21T17:44:49.478Z,13.37
2023-03-21T17:47:17.296Z,15.00
2023-03-21T17:49:46.780Z,14.00
2023-03-21T17:52:15.214Z,14.77
2023-03-21T17:54:42.730Z,13.70
2023-03-21T17:57:11.356Z,15.47
2023-03-21T17:59:38.904Z,16.50
2023-03-21T18:02:06.854Z,15.83
2023-03-21T18:04:36.424Z,15.00
2023-03-21T18:07:10.546Z,16.10
2023-03-21T18:09:38.264Z,15.40
2023-03-21T18:12:06.256Z,16.43
2023-03-21T18:14:34.912Z,16.33
2023-03-21T18:17:02.433Z,17.50
2023-03-21T18:19:30.039Z,16.43
2023-03-21T18:21:57.848Z,17.13
2023-03-21T18:24:26.877Z,18.10
2023-03-21T18:26:56.618Z,16.63
2023-03-21T18:32:12.575Z,19.30
2023-03-21T18:34:41.847Z,17.63
2023-03-21T18:37:13.549Z,19.20
2023-03-21T18:39:44.585Z,17.20
2023-03-21T18:42:18.014Z,19.30
2023-03-21T18:44:49.170Z,18.40
2023-03-21T18:47:17.196Z,18.03
2023-03-21T18:50:15.439Z,19.83
2023-03-21T18:52:35.328Z,19.50
2023-03-21T18:55:05.338Z,19.20
2023-03-21T18:57:37.442Z,19.80
2023-03-21T19:00:12.621Z,20.70
2023-03-21T19:02:46.301Z,20.53
2023-03-21T19:05:18.611Z,21.17
2023-03-21T19:07:46.561Z,21.13
2023-03-21T19:10:18.902Z,20.20
2023-03-21T19:12:47.852Z,21.57
2023-03-21T19:15:20.662Z,19.60
2023-03-21T19:18:34.324Z,20.93
2023-03-21T19:20:56.355Z,21.57
2023-03-21T19:23:39.913Z,21.53
2023-03-21T19:26:17.326Z,20.93
2023-03-21T19:28:48.355Z,20.93
2023-03-21T19:31:21.469Z,18.73
2023-03-21T19:34:08.383Z,21.73
2023-03-21T19:36:36.682Z,21.70
2023-03-21T19:39:05.028Z,34.20
2023-03-21T19:41:40.511Z,23.83
2023-03-21T19:44:13.988Z,22.87
2023-03-21T19:46:44.178Z,20.80
2023-03-21T19:49:13.117Z,21.10
2023-03-21T19:51:41.394Z,21.63
2023-03-21T19:54:10.891Z,21.70
2023-03-21T19:56:47.714Z,22.60
2023-03-21T19:59:21.748Z,22.53
2023-03-21T20:01:50.316Z,20.47
2023-03-21T20:04:24.158Z,19.20
2023-03-21T20:06:54.482Z,20.70
2023-03-21T20:09:51.219Z,20.73
2023-03-21T20:12:13.052Z,19.47
2023-03-21T20:14:45.577Z,20.40
2023-03-21T20:17:13.610Z,20.80
2023-03-21T20:19:41.985Z,20.97
2023-03-21T20:22:21.975Z,19.07
2023-03-21T20:24:56.013Z,19.53
2023-03-21T20:27:25.607Z,19.37
2023-03-21T20:30:09.314Z,20.43
2023-03-21T20:32:38.733Z,18.90
2023-03-21T20:35:22.981Z,18.63
2023-03-21T20:37:56.358Z,19.67
2023-03-21T20:40:24.157Z,20.37
2023-03-21T20:42:56.270Z,20.03
2023-03-21T20:45:24.930Z,19.67
2023-03-21T20:47:52.758Z,20.43
2023-03-21T20:50:26.023Z,20.13
2023-03-21T20:53:06.438Z,18.20
2023-03-21T20:55:36.622Z,19.60
2023-03-21T20:58:30.176Z,19.23
2023-03-21T21:01:09.725Z,18.07
2023-03-21T21:03:40.236Z,18.60
2023-03-21T21:06:24.850Z,18.63
2023-03-21T21:08:52.525Z,18.70
2023-03-21T21:14:13.798Z,17.93
2023-03-21T21:16:41.599Z,18.17
2023-03-21T21:19:10.881Z,17.50
2023-03-21T21:21:41.708Z,18.47
2023-03-21T21:24:10.278Z,19.17
2023-03-21T21:26:40.085Z,17.83
2023-03-21T21:29:07.985Z,16.13
2023-03-21T21:31:37.597Z,17.10
2023-03-21T21:34:06.159Z,17.10
2023-03-21T21:36:34.067Z,16.27
2023-03-21T21:39:02.032Z,16.27
2023-03-21T21:41:30.593Z,17.10
2023-03-21T21:44:01.559Z,15.77
2023-03-21T21:46:30.554Z,15.97
2023-03-21T21:49:07.378Z,15.23
2023-03-21T21:51:37.266Z,14.40
2023-03-21T21:54:06.685Z,14.00
2023-03-21T21:56:38.151Z,13.30
2023-03-21T21:59:08.649Z,12.73
2023-03-21T22:01:49.320Z,12.93
2023-03-21T22:04:28.122Z,13.60
2023-03-21T22:06:59.363Z,12.83
2023-03-21T22:09:36.806Z,13.43
2023-03-21T22:12:05.021Z,12.27
2023-03-21T22:14:32.568Z,12.00
2023-03-21T22:17:02.440Z,12.40
2023-03-21T22:19:32.345Z,13.33
2023-03-21T22:21:59.995Z,13.30
2023-03-21T22:24:27.787Z,12.70
2023-03-21T22:26:57.951Z,12.83
2023-03-21T22:29:26.358Z,14.30
2023-03-21T22:31:54.541Z,12.10
2023-03-21T22:34:22.688Z,12.40
2023-03-21T22:36:52.119Z,11.03
2023-03-21T22:39:23.104Z,12.73
2023-03-21T22:41:50.660Z,12.30
2023-03-21T22:44:18.154Z,12.30
2023-03-21T22:46:45.772Z,12.40
2023-03-21T22:49:13.325Z,11.73
2023-03-21T22:51:41.569Z,11.50
2023-03-21T22:54:10.564Z,11.90
2023-03-21T22:56:38.073Z,12.00
2023-03-21T22:59:05.787Z,10.83
2023-03-21T23:01:33.363Z,10.20
2023-03-21T23:04:00.926Z,11.20
2023-03-21T23:06:28.423Z,11.37
2023-03-21T23:08:55.936Z,11.90
2023-03-21T23:11:25.079Z,11.90
2023-03-21T23:14:06.757Z,12.10
2023-03-21T23:16:38.541Z,12.20
2023-03-21T23:19:07.705Z,11.70
2023-03-21T23:21:37.812Z,11.60
2023-03-21T23:24:07.185Z,12.77
2023-03-21T23:26:36.255Z,12.60
2023-03-21T23:29:05.474Z,12.57
2023-03-21T23:31:34.457Z,12.90
2023-03-21T23:34:02.773Z,13.07
2023-03-21T23:36:31.549Z,11.70
2023-03-21T23:39:00.098Z,11.50
2023-03-21T23:41:28.467Z,11.93
2023-03-21T23:44:09.135Z,13.47
2023-03-21T23:46:37.257Z,13.77
2023-03-21T23:49:07.445Z,13.60
2023-03-21T23:51:35.317Z,13.23
2023-03-21T23:54:04.328Z,14.07
2023-03-21T23:56:32.304Z,13.63
2023-03-21T23:59:04.552Z,14.50
